CheckWX is a tool to help pilots better visualize weather data.  It is not intended as a substitute for an official pre-flight weather briefing.

08:37:19 UTC

CYZV METAR
Sept-Îles Airport
Sept-Îles, Canada
Current

37 mins ago

CYZV 220800Z VRB02KT 15SM FEW080 M27/M30 A2990 RMK AC1 AC TR SLP133
Observed
Feb-22 @ 08:00 UTC
Wind
  • Variable at 2 KTS
Visibility
15 SM
Flight Rules
VFR
Cloud Levels
  • Few at 8,000' AGL
Temperature
-27°C / -17°F
Dewpoint
-30°C / -22°F
Humidity
76%
Altimeter
29.9" Hg
Pressure
1013.3 hPa
Previous

2 hours ago

CYZV 220700Z 04005KT 310V050 15SM FEW080 M25/M29 A2989 RMK AC1 AC TR SLP128
Observed
Feb-22 @ 07:00 UTC
Wind
  • 040° at 5 KTS
Visibility
15 SM
Flight Rules
VFR
Cloud Levels
  • Few at 8,000' AGL
Temperature
-25°C / -13°F
Dewpoint
-29°C / -20°F
Humidity
69%
Altimeter
29.89" Hg
Pressure
1012.8 hPa
Previous

3 hours ago

CYZV 220600Z 32004KT 15SM FEW080 M26/M30 A2987 RMK AC1 AC TR SLP122
Observed
Feb-22 @ 06:00 UTC
Wind
  • 320° at 4 KTS
Visibility
15 SM
Flight Rules
VFR
Cloud Levels
  • Few at 8,000' AGL
Temperature
-26°C / -15°F
Dewpoint
-30°C / -22°F
Humidity
69%
Altimeter
29.87" Hg
Pressure
1012.2 hPa